sensor_id;sensor_type;location;lat;lon;timestamp;pressure;altitude;pressure_sealevel;temperature;humidity
60646;BME280;46462;32.608;-117.032;2023-05-19T00:01:41;99139.24;;;25.99;45.12
60646;BME280;46462;32.608;-117.032;2023-05-19T00:04:11;99145.79;;;25.97;45.20
60646;BME280;46462;32.608;-117.032;2023-05-19T00:06:42;99145.97;;;26.01;45.11
60646;BME280;46462;32.608;-117.032;2023-05-19T00:09:12;99147.72;;;25.95;45.18
60646;BME280;46462;32.608;-117.032;2023-05-19T00:11:43;99141.67;;;25.96;45.18
60646;BME280;46462;32.608;-117.032;2023-05-19T00:14:14;99144.74;;;25.98;45.13
60646;BME280;46462;32.608;-117.032;2023-05-19T00:16:44;99147.52;;;25.99;45.12
60646;BME280;46462;32.608;-117.032;2023-05-19T00:19:14;99148.43;;;26.02;45.10
60646;BME280;46462;32.608;-117.032;2023-05-19T00:21:45;99152.15;;;26.03;45.08
60646;BME280;46462;32.608;-117.032;2023-05-19T00:24:16;99151.12;;;26.00;45.15
60646;BME280;46462;32.608;-117.032;2023-05-19T00:26:46;99149.18;;;26.00;45.15
60646;BME280;46462;32.608;-117.032;2023-05-19T00:29:17;99148.67;;;25.98;45.20
60646;BME280;46462;32.608;-117.032;2023-05-19T00:31:48;99147.92;;;26.04;45.07
60646;BME280;46462;32.608;-117.032;2023-05-19T00:34:19;99153.06;;;25.97;45.24
60646;BME280;46462;32.608;-117.032;2023-05-19T00:36:49;99149.79;;;26.07;45.05
60646;BME280;46462;32.608;-117.032;2023-05-19T00:39:20;99148.74;;;26.05;45.11
60646;BME280;46462;32.608;-117.032;2023-05-19T00:41:50;99159.88;;;26.08;45.05
60646;BME280;46462;32.608;-117.032;2023-05-19T00:44:21;99161.55;;;26.06;45.04
60646;BME280;46462;32.608;-117.032;2023-05-19T00:46:52;99160.70;;;26.05;45.08
60646;BME280;46462;32.608;-117.032;2023-05-19T00:49:22;99161.70;;;25.96;45.31
60646;BME280;46462;32.608;-117.032;2023-05-19T00:51:54;99161.62;;;26.03;45.13
60646;BME280;46462;32.608;-117.032;2023-05-19T00:54:24;99162.93;;;25.99;45.27
60646;BME280;46462;32.608;-117.032;2023-05-19T00:56:55;99162.55;;;26.05;45.11
60646;BME280;46462;32.608;-117.032;2023-05-19T00:59:25;99158.33;;;26.04;45.15
60646;BME280;46462;32.608;-117.032;2023-05-19T01:01:55;99161.16;;;26.01;45.22
60646;BME280;46462;32.608;-117.032;2023-05-19T01:04:26;99161.31;;;26.01;45.23
60646;BME280;46462;32.608;-117.032;2023-05-19T01:06:57;99164.81;;;26.03;45.21
60646;BME280;46462;32.608;-117.032;2023-05-19T01:09:27;99163.43;;;26.00;45.27
60646;BME280;46462;32.608;-117.032;2023-05-19T01:11:59;99159.78;;;26.01;45.20
60646;BME280;46462;32.608;-117.032;2023-05-19T01:14:29;99157.02;;;25.96;45.33
60646;BME280;46462;32.608;-117.032;2023-05-19T01:17:06;99157.73;;;25.95;45.35
60646;BME280;46462;32.608;-117.032;2023-05-19T01:19:44;99160.20;;;25.94;45.33
60646;BME280;46462;32.608;-117.032;2023-05-19T01:22:08;99162.09;;;25.97;45.28
60646;BME280;46462;32.608;-117.032;2023-05-19T01:29:41;99157.90;;;25.96;45.29
60646;BME280;46462;32.608;-117.032;2023-05-19T01:32:04;99163.29;;;25.95;45.28
60646;BME280;46462;32.608;-117.032;2023-05-19T01:34:41;99169.93;;;25.91;45.41
60646;BME280;46462;32.608;-117.032;2023-05-19T01:37:05;99176.01;;;25.89;45.46
60646;BME280;46462;32.608;-117.032;2023-05-19T01:39:35;99177.85;;;25.95;45.29
60646;BME280;46462;32.608;-117.032;2023-05-19T01:42:06;99171.78;;;25.88;45.43
60646;BME280;46462;32.608;-117.032;2023-05-19T01:44:37;99166.35;;;25.87;45.45
60646;BME280;46462;32.608;-117.032;2023-05-19T01:47:07;99167.27;;;25.89;45.35
60646;BME280;46462;32.608;-117.032;2023-05-19T01:49:38;99171.55;;;25.82;45.56
60646;BME280;46462;32.608;-117.032;2023-05-19T01:52:08;99174.87;;;25.82;45.53
60646;BME280;46462;32.608;-117.032;2023-05-19T01:54:39;99179.69;;;25.93;45.27
60646;BME280;46462;32.608;-117.032;2023-05-19T01:57:18;99186.18;;;25.95;45.18
60646;BME280;46462;32.608;-117.032;2023-05-19T01:59:52;99183.79;;;25.91;45.29
60646;BME280;46462;32.608;-117.032;2023-05-19T02:02:18;99183.91;;;25.91;45.24
60646;BME280;46462;32.608;-117.032;2023-05-19T02:04:43;99184.90;;;25.90;45.31
60646;BME280;46462;32.608;-117.032;2023-05-19T02:07:16;99185.77;;;25.94;45.19
60646;BME280;46462;32.608;-117.032;2023-05-19T02:09:51;99189.37;;;25.95;45.16
60646;BME280;46462;32.608;-117.032;2023-05-19T02:12:21;99190.33;;;25.95;45.11
60646;BME280;46462;32.608;-117.032;2023-05-19T02:14:48;99192.65;;;25.94;45.11
60646;BME280;46462;32.608;-117.032;2023-05-19T02:17:16;99190.23;;;25.96;45.02
60646;BME280;46462;32.608;-117.032;2023-05-19T02:19:46;99191.41;;;25.86;45.26
60646;BME280;46462;32.608;-117.032;2023-05-19T02:22:16;99195.74;;;25.89;45.15
60646;BME280;46462;32.608;-117.032;2023-05-19T02:24:47;99201.58;;;25.89;45.16
60646;BME280;46462;32.608;-117.032;2023-05-19T02:27:17;99207.76;;;25.89;45.14
60646;BME280;46462;32.608;-117.032;2023-05-19T02:29:48;99208.98;;;25.86;45.24
60646;BME280;46462;32.608;-117.032;2023-05-19T02:32:20;99212.13;;;25.81;45.29
60646;BME280;46462;32.608;-117.032;2023-05-19T02:34:50;99215.86;;;25.82;45.27
60646;BME280;46462;32.608;-117.032;2023-05-19T02:37:20;99220.44;;;25.84;45.19
60646;BME280;46462;32.608;-117.032;2023-05-19T02:39:51;99220.27;;;25.83;45.27
60646;BME280;46462;32.608;-117.032;2023-05-19T02:42:22;99223.70;;;25.86;45.13
60646;BME280;46462;32.608;-117.032;2023-05-19T02:44:54;99230.72;;;25.84;45.10
60646;BME280;46462;32.608;-117.032;2023-05-19T02:47:23;99233.50;;;25.85;45.09
60646;BME280;46462;32.608;-117.032;2023-05-19T02:49:54;99230.82;;;25.88;45.00
60646;BME280;46462;32.608;-117.032;2023-05-19T02:52:24;99233.39;;;25.86;45.05
60646;BME280;46462;32.608;-117.032;2023-05-19T02:54:55;99238.63;;;25.81;45.20
60646;BME280;46462;32.608;-117.032;2023-05-19T02:57:25;99243.50;;;25.82;45.15
60646;BME280;46462;32.608;-117.032;2023-05-19T02:59:56;99248.96;;;25.83;45.13
60646;BME280;46462;32.608;-117.032;2023-05-19T03:02:27;99254.43;;;25.84;45.08
60646;BME280;46462;32.608;-117.032;2023-05-19T03:04:57;99256.87;;;25.84;45.03
60646;BME280;46462;32.608;-117.032;2023-05-19T03:07:28;99259.12;;;25.83;45.06
60646;BME280;46462;32.608;-117.032;2023-05-19T03:09:58;99257.98;;;25.85;44.96
60646;BME280;46462;32.608;-117.032;2023-05-19T03:12:29;99256.43;;;25.84;44.97
60646;BME280;46462;32.608;-117.032;2023-05-19T03:15:00;99258.04;;;25.80;45.03
60646;BME280;46462;32.608;-117.032;2023-05-19T03:17:30;99259.09;;;25.81;44.98
60646;BME280;46462;32.608;-117.032;2023-05-19T03:20:01;99262.86;;;25.82;44.93
60646;BME280;46462;32.608;-117.032;2023-05-19T03:22:32;99268.28;;;25.80;44.99
60646;BME280;46462;32.608;-117.032;2023-05-19T03:25:08;99267.90;;;25.76;45.13
60646;BME280;46462;32.608;-117.032;2023-05-19T03:27:38;99267.44;;;25.77;45.08
60646;BME280;46462;32.608;-117.032;2023-05-19T03:30:10;99265.89;;;25.72;45.16
60646;BME280;46462;32.608;-117.032;2023-05-19T03:32:39;99266.27;;;25.76;45.10
60646;BME280;46462;32.608;-117.032;2023-05-19T03:35:10;99268.01;;;25.67;45.29
60646;BME280;46462;32.608;-117.032;2023-05-19T03:37:40;99269.27;;;25.74;45.14
60646;BME280;46462;32.608;-117.032;2023-05-19T03:40:12;99271.38;;;25.66;45.39
60646;BME280;46462;32.608;-117.032;2023-05-19T03:42:42;99274.64;;;25.68;45.29
60646;BME280;46462;32.608;-117.032;2023-05-19T03:45:13;99277.45;;;25.61;45.50
60646;BME280;46462;32.608;-117.032;2023-05-19T03:47:43;99282.01;;;25.63;45.46
60646;BME280;46462;32.608;-117.032;2023-05-19T03:50:14;99283.37;;;25.61;45.52
60646;BME280;46462;32.608;-117.032;2023-05-19T03:52:44;99288.48;;;25.65;45.40
60646;BME280;46462;32.608;-117.032;2023-05-19T03:55:15;99291.63;;;25.63;45.46
60646;BME280;46462;32.608;-117.032;2023-05-19T03:57:46;99296.26;;;25.64;45.39
60646;BME280;46462;32.608;-117.032;2023-05-19T04:00:17;99299.68;;;25.67;45.32
60646;BME280;46462;32.608;-117.032;2023-05-19T04:02:47;99302.17;;;25.66;45.28
60646;BME280;46462;32.608;-117.032;2023-05-19T04:05:18;99305.09;;;25.66;45.30
60646;BME280;46462;32.608;-117.032;2023-05-19T04:07:48;99308.00;;;25.67;45.23
60646;BME280;46462;32.608;-117.032;2023-05-19T04:10:19;99309.63;;;25.65;45.30
60646;BME280;46462;32.608;-117.032;2023-05-19T04:12:50;99309.47;;;25.65;45.27
60646;BME280;46462;32.608;-117.032;2023-05-19T04:15:21;99311.35;;;25.64;45.29
60646;BME280;46462;32.608;-117.032;2023-05-19T04:17:51;99316.00;;;25.64;45.27
60646;BME280;46462;32.608;-117.032;2023-05-19T04:20:22;99325.02;;;25.65;45.25
60646;BME280;46462;32.608;-117.032;2023-05-19T04:22:52;99333.77;;;25.66;45.20
60646;BME280;46462;32.608;-117.032;2023-05-19T04:25:23;99340.17;;;25.66;45.18
60646;BME280;46462;32.608;-117.032;2023-05-19T04:27:54;99340.16;;;25.66;45.20
60646;BME280;46462;32.608;-117.032;2023-05-19T04:30:25;99338.41;;;25.63;45.25
60646;BME280;46462;32.608;-117.032;2023-05-19T04:32:55;99338.82;;;25.66;45.18
60646;BME280;46462;32.608;-117.032;2023-05-19T04:35:26;99341.39;;;25.61;45.26
60646;BME280;46462;32.608;-117.032;2023-05-19T04:37:56;99345.28;;;25.60;45.28
60646;BME280;46462;32.608;-117.032;2023-05-19T04:40:27;99346.22;;;25.67;45.11
60646;BME280;46462;32.608;-117.032;2023-05-19T04:42:58;99349.29;;;25.72;44.98
60646;BME280;46462;32.608;-117.032;2023-05-19T04:45:28;99356.85;;;25.68;45.05
60646;BME280;46462;32.608;-117.032;2023-05-19T04:47:59;99356.55;;;25.64;45.15
60646;BME280;46462;32.608;-117.032;2023-05-19T04:50:29;99353.60;;;25.61;45.24
60646;BME280;46462;32.608;-117.032;2023-05-19T04:53:00;99356.16;;;25.63;45.16
60646;BME280;46462;32.608;-117.032;2023-05-19T04:55:31;99358.61;;;25.65;45.12
60646;BME280;46462;32.608;-117.032;2023-05-19T04:58:01;99359.20;;;25.62;45.16
60646;BME280;46462;32.608;-117.032;2023-05-19T05:00:33;99364.99;;;25.60;45.23
60646;BME280;46462;32.608;-117.032;2023-05-19T05:03:03;99367.14;;;25.60;45.22
60646;BME280;46462;32.608;-117.032;2023-05-19T05:05:34;99365.52;;;25.61;45.17
60646;BME280;46462;32.608;-117.032;2023-05-19T05:08:04;99363.09;;;25.60;45.13
60646;BME280;46462;32.608;-117.032;2023-05-19T05:10:35;99360.33;;;25.61;45.09
60646;BME280;46462;32.608;-117.032;2023-05-19T05:13:06;99359.47;;;25.56;45.20
60646;BME280;46462;32.608;-117.032;2023-05-19T05:15:37;99355.90;;;25.57;45.17
60646;BME280;46462;32.608;-117.032;2023-05-19T05:18:07;99353.81;;;25.54;45.21
60646;BME280;46462;32.608;-117.032;2023-05-19T05:20:38;99360.00;;;25.55;45.17
60646;BME280;46462;32.608;-117.032;2023-05-19T05:23:08;99361.51;;;25.51;45.24
60646;BME280;46462;32.608;-117.032;2023-05-19T05:25:39;99353.25;;;25.43;45.45
60646;BME280;46462;32.608;-117.032;2023-05-19T05:28:09;99354.35;;;25.47;45.32
60646;BME280;46462;32.608;-117.032;2023-05-19T05:30:40;99354.29;;;25.48;45.29
60646;BME280;46462;32.608;-117.032;2023-05-19T05:33:11;99350.67;;;25.51;45.21
60646;BME280;46462;32.608;-117.032;2023-05-19T05:35:41;99350.62;;;25.42;45.41
60646;BME280;46462;32.608;-117.032;2023-05-19T05:38:12;99353.67;;;25.40;45.43
60646;BME280;46462;32.608;-117.032;2023-05-19T05:41:15;99358.97;;;25.41;45.35
60646;BME280;46462;32.608;-117.032;2023-05-19T05:43:46;99358.83;;;25.51;45.11
60646;BME280;46462;32.608;-117.032;2023-05-19T05:46:17;99359.01;;;25.55;45.00
60646;BME280;46462;32.608;-117.032;2023-05-19T05:48:48;99357.20;;;25.51;45.05
60646;BME280;46462;32.608;-117.032;2023-05-19T05:51:21;99357.12;;;25.45;45.15
60646;BME280;46462;32.608;-117.032;2023-05-19T05:53:52;99359.99;;;25.44;45.15
60646;BME280;46462;32.608;-117.032;2023-05-19T05:56:20;99359.88;;;25.52;44.98
60646;BME280;46462;32.608;-117.032;2023-05-19T05:58:50;99359.86;;;25.48;45.05
60646;BME280;46462;32.608;-117.032;2023-05-19T06:01:21;99361.39;;;25.49;45.01
60646;BME280;46462;32.608;-117.032;2023-05-19T06:03:51;99358.65;;;25.42;45.12
60646;BME280;46462;32.608;-117.032;2023-05-19T06:06:22;99360.09;;;25.43;45.12
60646;BME280;46462;32.608;-117.032;2023-05-19T06:08:53;99358.44;;;25.44;45.08
60646;BME280;46462;32.608;-117.032;2023-05-19T06:11:24;99354.67;;;25.37;45.20
60646;BME280;46462;32.608;-117.032;2023-05-19T06:13:54;99354.31;;;25.47;44.96
60646;BME280;46462;32.608;-117.032;2023-05-19T06:16:25;99354.32;;;25.44;44.98
60646;BME280;46462;32.608;-117.032;2023-05-19T06:18:56;99354.68;;;25.44;44.94
60646;BME280;46462;32.608;-117.032;2023-05-19T06:21:26;99358.28;;;25.40;45.04
60646;BME280;46462;32.608;-117.032;2023-05-19T06:23:57;99361.18;;;25.37;45.01
60646;BME280;46462;32.608;-117.032;2023-05-19T06:26:28;99360.57;;;25.35;45.11
60646;BME280;46462;32.608;-117.032;2023-05-19T06:28:58;99362.26;;;25.32;45.18
60646;BME280;46462;32.608;-117.032;2023-05-19T06:31:29;99356.35;;;25.37;45.05
60646;BME280;46462;32.608;-117.032;2023-05-19T06:34:00;99355.86;;;25.37;45.00
60646;BME280;46462;32.608;-117.032;2023-05-19T06:36:31;99361.21;;;25.37;44.97
60646;BME280;46462;32.608;-117.032;2023-05-19T06:39:01;99363.11;;;25.34;45.02
60646;BME280;46462;32.608;-117.032;2023-05-19T06:41:32;99366.09;;;25.28;45.14
60646;BME280;46462;32.608;-117.032;2023-05-19T06:44:05;99369.59;;;25.37;44.90
60646;BME280;46462;32.608;-117.032;2023-05-19T06:46:33;99372.64;;;25.36;44.91
60646;BME280;46462;32.608;-117.032;2023-05-19T06:49:04;99371.42;;;25.36;44.88
60646;BME280;46462;32.608;-117.032;2023-05-19T06:51:35;99367.96;;;25.31;44.99
60646;BME280;46462;32.608;-117.032;2023-05-19T06:54:05;99371.04;;;25.33;44.94
60646;BME280;46462;32.608;-117.032;2023-05-19T06:56:36;99372.70;;;25.30;44.99
60646;BME280;46462;32.608;-117.032;2023-05-19T06:59:07;99371.70;;;25.30;44.96
60646;BME280;46462;32.608;-117.032;2023-05-19T07:01:38;99373.88;;;25.30;44.94
60646;BME280;46462;32.608;-117.032;2023-05-19T07:04:08;99374.41;;;25.25;44.99
60646;BME280;46462;32.608;-117.032;2023-05-19T07:06:39;99372.96;;;25.21;45.07
60646;BME280;46462;32.608;-117.032;2023-05-19T07:09:09;99370.95;;;25.20;45.11
60646;BME280;46462;32.608;-117.032;2023-05-19T07:11:40;99370.84;;;25.19;45.13
60646;BME280;46462;32.608;-117.032;2023-05-19T07:14:11;99367.53;;;25.27;44.87
60646;BME280;46462;32.608;-117.032;2023-05-19T07:16:42;99369.17;;;25.22;44.94
60646;BME280;46462;32.608;-117.032;2023-05-19T07:19:12;99371.00;;;25.24;44.85
60646;BME280;46462;32.608;-117.032;2023-05-19T07:21:43;99368.05;;;25.25;44.79
60646;BME280;46462;32.608;-117.032;2023-05-19T07:24:13;99370.33;;;25.20;44.89
60646;BME280;46462;32.608;-117.032;2023-05-19T07:26:44;99373.06;;;25.16;44.98
60646;BME280;46462;32.608;-117.032;2023-05-19T07:29:15;99371.82;;;25.13;45.06
60646;BME280;46462;32.608;-117.032;2023-05-19T07:31:46;99368.45;;;25.13;45.02
60646;BME280;46462;32.608;-117.032;2023-05-19T07:34:16;99362.30;;;25.16;44.94
60646;BME280;46462;32.608;-117.032;2023-05-19T07:36:47;99358.17;;;25.10;45.05
60646;BME280;46462;32.608;-117.032;2023-05-19T07:39:18;99357.59;;;25.03;45.21
60646;BME280;46462;32.608;-117.032;2023-05-19T07:41:48;99357.95;;;25.05;45.14
60646;BME280;46462;32.608;-117.032;2023-05-19T07:44:19;99355.07;;;25.03;45.15
60646;BME280;46462;32.608;-117.032;2023-05-19T07:46:50;99353.78;;;25.04;45.11
60646;BME280;46462;32.608;-117.032;2023-05-19T07:49:20;99350.33;;;25.01;45.15
60646;BME280;46462;32.608;-117.032;2023-05-19T07:51:51;99347.42;;;25.03;45.12
60646;BME280;46462;32.608;-117.032;2023-05-19T07:54:22;99346.81;;;25.03;45.05
60646;BME280;46462;32.608;-117.032;2023-05-19T07:56:52;99349.84;;;25.01;45.08
60646;BME280;46462;32.608;-117.032;2023-05-19T07:59:23;99355.74;;;24.97;45.16
60646;BME280;46462;32.608;-117.032;2023-05-19T08:01:54;99358.43;;;25.01;45.05
60646;BME280;46462;32.608;-117.032;2023-05-19T08:04:24;99358.95;;;25.03;44.95
60646;BME280;46462;32.608;-117.032;2023-05-19T08:06:55;99358.41;;;25.02;44.99
60646;BME280;46462;32.608;-117.032;2023-05-19T08:09:26;99361.74;;;25.01;45.01
60646;BME280;46462;32.608;-117.032;2023-05-19T08:11:56;99357.68;;;24.99;44.99
60646;BME280;46462;32.608;-117.032;2023-05-19T08:14:27;99359.45;;;24.95;45.05
60646;BME280;46462;32.608;-117.032;2023-05-19T08:16:58;99360.90;;;24.92;45.05
60646;BME280;46462;32.608;-117.032;2023-05-19T08:19:28;99361.30;;;24.96;44.96
60646;BME280;46462;32.608;-117.032;2023-05-19T08:21:59;99364.15;;;24.92;45.01
60646;BME280;46462;32.608;-117.032;2023-05-19T08:24:30;99361.40;;;24.90;45.10
60646;BME280;46462;32.608;-117.032;2023-05-19T08:27:01;99362.90;;;24.92;44.94
60646;BME280;46462;32.608;-117.032;2023-05-19T08:29:31;99366.76;;;24.94;44.97
60646;BME280;46462;32.608;-117.032;2023-05-19T08:32:02;99370.29;;;24.87;44.99
60646;BME280;46462;32.608;-117.032;2023-05-19T08:34:33;99368.83;;;24.87;45.03
60646;BME280;46462;32.608;-117.032;2023-05-19T08:37:04;99369.28;;;24.95;44.80
60646;BME280;46462;32.608;-117.032;2023-05-19T08:39:34;99366.52;;;24.93;44.85
60646;BME280;46462;32.608;-117.032;2023-05-19T08:42:05;99363.15;;;24.95;44.72
60646;BME280;46462;32.608;-117.032;2023-05-19T08:44:36;99357.24;;;24.91;44.82
60646;BME280;46462;32.608;-117.032;2023-05-19T08:47:07;99349.72;;;24.95;44.69
60646;BME280;46462;32.608;-117.032;2023-05-19T08:49:42;99343.98;;;24.90;44.81
60646;BME280;46462;32.608;-117.032;2023-05-19T08:52:16;99339.08;;;24.93;44.74
60646;BME280;46462;32.608;-117.032;2023-05-19T08:54:44;99340.41;;;24.95;44.63
60646;BME280;46462;32.608;-117.032;2023-05-19T08:57:09;99343.41;;;24.93;44.68
60646;BME280;46462;32.608;-117.032;2023-05-19T08:59:40;99341.87;;;24.92;44.65
60646;BME280;46462;32.608;-117.032;2023-05-19T09:02:12;99342.37;;;24.93;44.64
60646;BME280;46462;32.608;-117.032;2023-05-19T09:04:41;99342.05;;;24.92;44.62
60646;BME280;46462;32.608;-117.032;2023-05-19T09:07:13;99340.29;;;24.89;44.67
60646;BME280;46462;32.608;-117.032;2023-05-19T09:09:42;99336.15;;;24.92;44.56
60646;BME280;46462;32.608;-117.032;2023-05-19T09:12:14;99338.93;;;24.93;44.52
60646;BME280;46462;32.608;-117.032;2023-05-19T09:14:44;99335.89;;;24.90;44.60
60646;BME280;46462;32.608;-117.032;2023-05-19T09:17:15;99339.15;;;24.91;44.56
60646;BME280;46462;32.608;-117.032;2023-05-19T09:19:45;99337.43;;;24.91;44.53
60646;BME280;46462;32.608;-117.032;2023-05-19T09:22:16;99331.04;;;24.89;44.49
60646;BME280;46462;32.608;-117.032;2023-05-19T09:24:47;99331.48;;;24.76;44.79
60646;BME280;46462;32.608;-117.032;2023-05-19T09:27:21;99330.04;;;24.81;44.63
60646;BME280;46462;32.608;-117.032;2023-05-19T09:29:48;99331.69;;;24.83;44.58
60646;BME280;46462;32.608;-117.032;2023-05-19T09:32:23;99340.24;;;24.78;44.68
60646;BME280;46462;32.608;-117.032;2023-05-19T09:34:49;99343.65;;;24.79;44.57
60646;BME280;46462;32.608;-117.032;2023-05-19T09:37:22;99345.86;;;24.86;44.43
60646;BME280;46462;32.608;-117.032;2023-05-19T09:39:51;99340.37;;;24.76;44.54
60646;BME280;46462;32.608;-117.032;2023-05-19T09:42:26;99336.26;;;24.76;44.62
60646;BME280;46462;32.608;-117.032;2023-05-19T09:45:00;99335.00;;;24.77;44.57
60646;BME280;46462;32.608;-117.032;2023-05-19T09:47:24;99338.61;;;24.79;44.57
60646;BME280;46462;32.608;-117.032;2023-05-19T09:49:53;99340.54;;;24.80;44.46
60646;BME280;46462;32.608;-117.032;2023-05-19T09:52:24;99337.54;;;24.77;44.47
60646;BME280;46462;32.608;-117.032;2023-05-19T09:54:56;99334.17;;;24.80;44.38
60646;BME280;46462;32.608;-117.032;2023-05-19T09:57:26;99335.67;;;24.78;44.41
60646;BME280;46462;32.608;-117.032;2023-05-19T09:59:58;99335.07;;;24.80;44.41
60646;BME280;46462;32.608;-117.032;2023-05-19T10:02:27;99336.61;;;24.74;44.51
60646;BME280;46462;32.608;-117.032;2023-05-19T10:04:58;99332.19;;;24.74;44.50
60646;BME280;46462;32.608;-117.032;2023-05-19T10:07:29;99335.14;;;24.74;44.50
60646;BME280;46462;32.608;-117.032;2023-05-19T10:09:59;99338.00;;;24.71;44.56
60646;BME280;46462;32.608;-117.032;2023-05-19T10:12:30;99336.38;;;24.68;44.60
60646;BME280;46462;32.608;-117.032;2023-05-19T10:15:00;99335.63;;;24.68;44.48
60646;BME280;46462;32.608;-117.032;2023-05-19T10:17:32;99333.87;;;24.65;44.55
60646;BME280;46462;32.608;-117.032;2023-05-19T10:20:02;99332.06;;;24.66;44.55
60646;BME280;46462;32.608;-117.032;2023-05-19T10:22:33;99327.10;;;24.70;44.42
60646;BME280;46462;32.608;-117.032;2023-05-19T10:25:09;99327.74;;;24.69;44.45
60646;BME280;46462;32.608;-117.032;2023-05-19T10:27:40;99325.84;;;24.71;44.41
60646;BME280;46462;32.608;-117.032;2023-05-19T10:30:11;99327.02;;;24.71;44.36
60646;BME280;46462;32.608;-117.032;2023-05-19T10:32:40;99325.55;;;24.72;44.32
60646;BME280;46462;32.608;-117.032;2023-05-19T10:35:22;99326.79;;;24.70;44.33
60646;BME280;46462;32.608;-117.032;2023-05-19T10:37:45;99329.78;;;24.74;44.20
60646;BME280;46462;32.608;-117.032;2023-05-19T10:40:15;99334.22;;;24.70;44.29
60646;BME280;46462;32.608;-117.032;2023-05-19T10:42:48;99337.26;;;24.72;44.22
60646;BME280;46462;32.608;-117.032;2023-05-19T10:45:14;99339.76;;;24.70;44.30
60646;BME280;46462;32.608;-117.032;2023-05-19T10:47:42;99340.71;;;24.76;44.07
60646;BME280;46462;32.608;-117.032;2023-05-19T10:50:13;99337.42;;;24.83;43.81
60646;BME280;46462;32.608;-117.032;2023-05-19T10:52:43;99336.25;;;24.74;44.07
60646;BME280;46462;32.608;-117.032;2023-05-19T10:55:14;99335.87;;;24.75;44.01
60646;BME280;46462;32.608;-117.032;2023-05-19T10:57:53;99336.19;;;24.76;43.98
60646;BME280;46462;32.608;-117.032;2023-05-19T11:02:46;99345.03;;;24.72;44.01
60646;BME280;46462;32.608;-117.032;2023-05-19T11:05:17;99346.05;;;24.72;44.04
60646;BME280;46462;32.608;-117.032;2023-05-19T11:07:55;99349.30;;;24.72;43.97
60646;BME280;46462;32.608;-117.032;2023-05-19T11:10:22;99352.69;;;24.68;44.05
60646;BME280;46462;32.608;-117.032;2023-05-19T11:12:50;99356.56;;;24.75;43.73
60646;BME280;46462;32.608;-117.032;2023-05-19T11:15:24;99362.91;;;24.68;43.99
60646;BME280;46462;32.608;-117.032;2023-05-19T11:17:52;99364.05;;;24.68;43.92
60646;BME280;46462;32.608;-117.032;2023-05-19T11:20:23;99365.68;;;24.74;43.70
60646;BME280;46462;32.608;-117.032;2023-05-19T11:27:53;99369.14;;;24.77;43.53
60646;BME280;46462;32.608;-117.032;2023-05-19T11:30:24;99366.68;;;24.73;43.66
60646;BME280;46462;32.608;-117.032;2023-05-19T11:32:54;99360.06;;;24.63;43.82
60646;BME280;46462;32.608;-117.032;2023-05-19T11:35:25;99358.54;;;24.73;43.54
60646;BME280;46462;32.608;-117.032;2023-05-19T11:37:56;99354.77;;;24.79;43.33
60646;BME280;46462;32.608;-117.032;2023-05-19T11:40:27;99348.77;;;24.72;43.52
60646;BME280;46462;32.608;-117.032;2023-05-19T11:42:57;99348.70;;;24.63;43.73
60646;BME280;46462;32.608;-117.032;2023-05-19T11:45:29;99353.00;;;24.62;43.82
60646;BME280;46462;32.608;-117.032;2023-05-19T11:47:59;99353.51;;;24.64;43.64
60646;BME280;46462;32.608;-117.032;2023-05-19T11:50:30;99351.22;;;24.61;43.79
60646;BME280;46462;32.608;-117.032;2023-05-19T11:53:00;99348.00;;;24.65;43.56
60646;BME280;46462;32.608;-117.032;2023-05-19T11:55:31;99350.99;;;24.63;43.61
60646;BME280;46462;32.608;-117.032;2023-05-19T11:58:02;99355.16;;;24.65;43.64
60646;BME280;46462;32.608;-117.032;2023-05-19T12:00:36;99359.48;;;24.65;43.55
60646;BME280;46462;32.608;-117.032;2023-05-19T12:03:03;99365.25;;;24.70;43.40
60646;BME280;46462;32.608;-117.032;2023-05-19T12:05:36;99366.44;;;24.63;43.56
60646;BME280;46462;32.608;-117.032;2023-05-19T12:08:05;99361.22;;;24.65;43.44
60646;BME280;46462;32.608;-117.032;2023-05-19T12:10:35;99360.77;;;24.55;43.73
60646;BME280;46462;32.608;-117.032;2023-05-19T12:13:06;99364.65;;;24.59;43.62
60646;BME280;46462;32.608;-117.032;2023-05-19T12:15:36;99369.55;;;24.54;43.69
60646;BME280;46462;32.608;-117.032;2023-05-19T12:18:07;99363.65;;;24.57;43.58
60646;BME280;46462;32.608;-117.032;2023-05-19T12:20:37;99359.82;;;24.64;43.37
60646;BME280;46462;32.608;-117.032;2023-05-19T12:23:08;99365.14;;;24.69;43.20
60646;BME280;46462;32.608;-117.032;2023-05-19T12:25:38;99375.98;;;24.68;43.34
60646;BME280;46462;32.608;-117.032;2023-05-19T12:28:09;99383.07;;;24.71;43.14
60646;BME280;46462;32.608;-117.032;2023-05-19T12:30:40;99389.35;;;24.66;43.23
60646;BME280;46462;32.608;-117.032;2023-05-19T12:33:11;99397.88;;;24.68;43.18
60646;BME280;46462;32.608;-117.032;2023-05-19T12:35:42;99412.73;;;24.65;43.21
60646;BME280;46462;32.608;-117.032;2023-05-19T12:38:14;99428.37;;;24.63;43.27
60646;BME280;46462;32.608;-117.032;2023-05-19T12:40:43;99439.04;;;24.64;43.22
60646;BME280;46462;32.608;-117.032;2023-05-19T12:43:18;99442.33;;;24.68;43.05
60646;BME280;46462;32.608;-117.032;2023-05-19T12:45:44;99443.90;;;24.70;43.01
60646;BME280;46462;32.608;-117.032;2023-05-19T12:48:15;99444.98;;;24.66;43.10
60646;BME280;46462;32.608;-117.032;2023-05-19T12:50:45;99441.18;;;24.67;43.04
60646;BME280;46462;32.608;-117.032;2023-05-19T12:53:16;99438.42;;;24.65;43.12
60646;BME280;46462;32.608;-117.032;2023-05-19T12:55:47;99445.78;;;24.56;43.26
60646;BME280;46462;32.608;-117.032;2023-05-19T12:58:18;99454.13;;;24.57;43.24
60646;BME280;46462;32.608;-117.032;2023-05-19T13:00:48;99459.83;;;24.58;43.23